TAF KTIX
KTIX 270538Z 2706/2806 34007KT P6SM FEW020 SCT035 FM271400 34007KT P6SM SCT250 FM271800 01007KT P6SM SCT250 FM280000 VRB04KT P6SM SCT250 AMD NOT SKED TIL 271200=
METAR KTIX
WC KTIX
WS KTIX
WV KTIX